createdAt,value
2018-03-26T00:00:53.384Z,32.90
2018-03-26T00:03:20.775Z,32.33
2018-03-26T00:05:48.188Z,34.35
2018-03-26T00:08:15.588Z,30.90
2018-03-26T00:10:43.000Z,32.50
2018-03-26T00:13:10.403Z,32.20
2018-03-26T00:15:37.804Z,32.15
2018-03-26T00:18:05.219Z,33.22
2018-03-26T00:20:32.650Z,33.38
2018-03-26T00:23:00.074Z,33.60
2018-03-26T00:25:27.473Z,34.10
2018-03-26T00:27:54.873Z,35.10
2018-03-26T00:30:22.283Z,34.75
2018-03-26T00:32:49.709Z,33.63
2018-03-26T00:35:17.145Z,35.28
2018-03-26T00:37:44.539Z,35.20
2018-03-26T00:40:11.961Z,33.97
2018-03-26T00:42:39.368Z,36.70
2018-03-26T00:45:06.776Z,36.17
2018-03-26T00:47:34.200Z,34.22
2018-03-26T00:50:01.612Z,37.38
2018-03-26T00:52:29.033Z,39.38
2018-03-26T00:54:56.452Z,40.55
2018-03-26T00:57:23.868Z,40.42
2018-03-26T00:59:51.298Z,40.10
2018-03-26T01:02:18.705Z,40.80
2018-03-26T01:04:46.128Z,39.70
2018-03-26T01:07:13.546Z,39.55
2018-03-26T01:09:40.965Z,39.95
2018-03-26T01:12:08.397Z,41.10
2018-03-26T01:14:35.802Z,37.42
2018-03-26T01:17:03.203Z,35.88
2018-03-26T01:19:30.625Z,36.72
2018-03-26T01:21:58.035Z,37.70
2018-03-26T01:24:25.489Z,36.63
2018-03-26T01:26:52.866Z,37.45
2018-03-26T01:29:20.268Z,36.85
2018-03-26T01:31:47.707Z,35.55
2018-03-26T01:34:15.104Z,35.72
2018-03-26T01:36:42.523Z,36.58
2018-03-26T01:39:09.937Z,37.83
2018-03-26T01:41:37.352Z,37.20
2018-03-26T01:44:04.776Z,35.97
2018-03-26T01:46:32.191Z,37.60
2018-03-26T01:48:59.612Z,37.63
2018-03-26T01:51:27.020Z,37.92
2018-03-26T01:53:54.440Z,37.35
2018-03-26T01:56:21.851Z,38.35
2018-03-26T01:58:49.325Z,40.33
2018-03-26T02:01:16.735Z,46.53
2018-03-26T02:03:44.140Z,47.78
2018-03-26T02:06:11.544Z,47.88
2018-03-26T02:08:38.966Z,47.95
2018-03-26T02:11:06.360Z,50.83
2018-03-26T02:13:33.784Z,55.55
2018-03-26T02:16:01.188Z,49.53
2018-03-26T02:18:28.876Z,52.75
2018-03-26T02:20:56.299Z,56.17
2018-03-26T02:23:23.703Z,53.22
2018-03-26T02:25:51.129Z,54.95
2018-03-26T02:28:18.531Z,51.85
2018-03-26T02:30:45.948Z,53.80
2018-03-26T02:33:13.368Z,52.60
2018-03-26T02:35:40.774Z,51.85
2018-03-26T02:38:08.191Z,51.03
2018-03-26T02:40:35.612Z,52.95
2018-03-26T02:43:03.029Z,52.90
2018-03-26T02:45:30.443Z,51.05
2018-03-26T02:47:57.848Z,49.53
2018-03-26T02:50:25.269Z,50.25
2018-03-26T02:52:52.672Z,51.20
2018-03-26T02:55:20.084Z,48.75
2018-03-26T02:57:47.505Z,49.65
2018-03-26T03:00:14.908Z,48.87
2018-03-26T03:02:42.333Z,49.20
2018-03-26T03:05:09.743Z,47.85
2018-03-26T03:07:37.145Z,49.05
2018-03-26T03:10:04.559Z,45.92
2018-03-26T03:12:31.971Z,50.12
2018-03-26T03:14:59.395Z,47.85
2018-03-26T03:17:26.795Z,49.95
2018-03-26T03:19:54.256Z,46.67
2018-03-26T03:22:21.621Z,44.55
2018-03-26T03:24:49.032Z,44.42
2018-03-26T03:27:16.455Z,44.55
2018-03-26T03:29:43.860Z,43.30
2018-03-26T03:32:11.277Z,42.97
2018-03-26T03:34:38.689Z,42.05
2018-03-26T03:37:06.101Z,40.80
2018-03-26T03:39:33.518Z,38.40
2018-03-26T03:42:00.927Z,40.65
2018-03-26T03:44:28.328Z,40.70
2018-03-26T03:46:55.749Z,39.80
2018-03-26T03:49:23.151Z,40.67
2018-03-26T03:51:50.579Z,44.40
2018-03-26T03:54:17.984Z,51.03
2018-03-26T03:56:45.392Z,52.38
2018-03-26T03:59:12.811Z,57.13
2018-03-26T04:01:40.219Z,55.50
2018-03-26T04:04:07.640Z,58.67
2018-03-26T04:06:35.039Z,59.50
2018-03-26T04:09:02.451Z,55.12
2018-03-26T04:11:29.895Z,52.58
2018-03-26T04:13:57.356Z,47.70
2018-03-26T04:16:24.874Z,50.60
2018-03-26T04:18:52.366Z,52.65
2018-03-26T04:21:19.829Z,53.00
2018-03-26T04:23:47.352Z,55.22
2018-03-26T04:26:14.808Z,48.85
2018-03-26T04:28:42.235Z,51.78
2018-03-26T04:31:09.755Z,53.33
2018-03-26T04:33:37.166Z,50.60
2018-03-26T04:36:04.582Z,52.40
2018-03-26T04:38:31.991Z,50.05
2018-03-26T04:40:59.412Z,49.60
2018-03-26T04:43:26.819Z,50.08
2018-03-26T04:45:54.227Z,50.65
2018-03-26T04:48:21.642Z,49.78
2018-03-26T04:50:49.061Z,49.95
2018-03-26T04:53:16.475Z,50.75
2018-03-26T04:55:43.927Z,50.53
2018-03-26T04:58:11.376Z,50.70
2018-03-26T05:00:38.796Z,51.05
2018-03-26T05:03:06.203Z,51.33
2018-03-26T05:05:33.621Z,49.40
2018-03-26T05:08:01.019Z,50.90
2018-03-26T05:10:28.420Z,48.87
2018-03-26T05:12:55.840Z,48.25
2018-03-26T05:15:23.255Z,50.12
2018-03-26T05:17:50.667Z,49.78
2018-03-26T05:20:18.075Z,49.30
2018-03-26T05:22:45.507Z,47.50
2018-03-26T05:25:12.900Z,46.80
2018-03-26T05:27:40.330Z,47.20
2018-03-26T05:30:07.760Z,48.63
2018-03-26T05:32:35.176Z,47.92
2018-03-26T05:35:02.584Z,46.28
2018-03-26T05:37:30.002Z,42.75
2018-03-26T05:39:57.412Z,43.97
2018-03-26T05:42:24.855Z,40.60
2018-03-26T05:44:52.292Z,40.35
2018-03-26T05:47:19.693Z,39.65
2018-03-26T05:49:47.100Z,41.20
2018-03-26T05:52:14.559Z,40.85
2018-03-26T05:54:41.932Z,40.28
2018-03-26T05:57:09.343Z,39.53
2018-03-26T05:59:36.743Z,39.03
2018-03-26T06:02:04.196Z,42.10
2018-03-26T06:04:31.552Z,45.07
2018-03-26T06:06:58.971Z,42.03
2018-03-26T06:09:26.375Z,44.67
2018-03-26T06:11:53.791Z,45.80
2018-03-26T06:14:21.184Z,47.33
2018-03-26T06:17:00.393Z,47.47
2018-03-26T06:19:27.807Z,49.63
2018-03-26T06:21:55.219Z,46.22
2018-03-26T06:24:22.620Z,44.13
2018-03-26T06:26:50.024Z,46.37
2018-03-26T06:29:17.428Z,49.00
2018-03-26T06:31:44.848Z,50.33
2018-03-26T06:34:12.247Z,50.67
2018-03-26T06:36:45.568Z,49.23
2018-03-26T06:39:17.507Z,50.17
2018-03-26T06:41:44.924Z,48.63
2018-03-26T06:44:12.382Z,47.73
2018-03-26T06:46:39.724Z,47.80
2018-03-26T06:49:07.134Z,52.10
2018-03-26T06:51:34.531Z,49.00
2018-03-26T06:54:01.944Z,54.80
2018-03-26T06:56:29.354Z,52.07
2018-03-26T06:58:56.756Z,53.77
2018-03-26T07:01:24.180Z,53.85
2018-03-26T07:03:51.580Z,54.00
2018-03-26T07:06:18.987Z,50.55
2018-03-26T07:08:46.403Z,50.83
2018-03-26T07:11:13.800Z,52.67
2018-03-26T07:13:41.220Z,53.00
2018-03-26T07:16:08.690Z,51.10
2018-03-26T07:18:36.100Z,54.60
2018-03-26T07:21:04.305Z,53.50
2018-03-26T07:23:31.700Z,52.20
2018-03-26T07:25:59.119Z,52.90
2018-03-26T07:28:26.519Z,51.33
2018-03-26T07:30:53.960Z,53.90
2018-03-26T07:33:21.352Z,53.87
2018-03-26T07:35:48.771Z,53.85
2018-03-26T07:38:16.193Z,58.10
2018-03-26T07:40:43.591Z,51.60
2018-03-26T07:43:10.988Z,50.90
2018-03-26T07:45:38.399Z,52.67
2018-03-26T07:48:05.808Z,53.97
2018-03-26T07:50:33.223Z,54.57
2018-03-26T07:53:00.638Z,54.57
2018-03-26T07:55:28.036Z,52.00
2018-03-26T07:57:55.445Z,54.47
2018-03-26T08:00:22.847Z,51.73
2018-03-26T08:02:50.257Z,51.70
2018-03-26T08:05:17.695Z,55.70
2018-03-26T08:07:45.132Z,52.97
2018-03-26T08:10:12.524Z,52.70
2018-03-26T08:12:39.935Z,51.88
2018-03-26T08:15:07.347Z,51.27
2018-03-26T08:17:34.743Z,50.03
2018-03-26T08:20:02.143Z,52.90
2018-03-26T08:22:29.553Z,52.50
2018-03-26T08:24:56.957Z,50.13
2018-03-26T08:27:24.349Z,52.00
2018-03-26T08:29:51.764Z,51.30
2018-03-26T08:32:19.264Z,53.13
2018-03-26T08:34:46.669Z,52.33
2018-03-26T08:37:14.076Z,53.60
2018-03-26T08:39:41.475Z,52.03
2018-03-26T08:42:08.879Z,49.90
2018-03-26T08:44:36.288Z,50.90
2018-03-26T08:47:03.688Z,52.63
2018-03-26T08:49:31.089Z,48.67
2018-03-26T08:51:58.508Z,48.10
2018-03-26T08:54:25.917Z,51.93
2018-03-26T08:56:53.320Z,48.37
2018-03-26T08:59:20.764Z,50.23
2018-03-26T09:01:48.143Z,53.73
2018-03-26T09:04:15.552Z,53.03
2018-03-26T09:06:42.947Z,49.80
2018-03-26T09:09:10.351Z,48.57
2018-03-26T09:11:37.755Z,53.63
2018-03-26T09:14:05.219Z,49.03
2018-03-26T09:16:32.615Z,49.73
2018-03-26T09:19:00.017Z,49.43
2018-03-26T09:21:27.423Z,50.33
2018-03-26T09:23:54.824Z,49.03
2018-03-26T09:26:22.236Z,53.20
2018-03-26T09:28:49.644Z,50.80
2018-03-26T09:31:17.047Z,51.47
2018-03-26T09:33:44.460Z,49.67
2018-03-26T09:36:11.865Z,52.43
2018-03-26T09:38:39.292Z,49.80
2018-03-26T09:41:06.700Z,51.60
2018-03-26T09:43:34.108Z,47.10
2018-03-26T09:46:01.519Z,49.53
2018-03-26T09:48:28.938Z,52.30
2018-03-26T09:50:56.352Z,50.93
2018-03-26T09:53:23.765Z,49.57
2018-03-26T09:55:51.176Z,50.10
2018-03-26T09:58:18.594Z,54.03
2018-03-26T10:00:48.764Z,51.20
2018-03-26T10:03:16.229Z,51.77
2018-03-26T10:05:43.636Z,50.73
2018-03-26T10:08:11.076Z,51.43
2018-03-26T10:10:38.488Z,51.10
2018-03-26T10:13:05.898Z,52.63
2018-03-26T10:15:33.304Z,52.20
2018-03-26T10:18:00.709Z,49.97
2018-03-26T10:20:28.150Z,51.57
2018-03-26T10:22:55.552Z,50.87
2018-03-26T10:25:22.943Z,51.93
2018-03-26T10:27:50.359Z,48.67
2018-03-26T10:30:17.767Z,47.57
2018-03-26T10:32:45.192Z,48.60
2018-03-26T10:35:12.592Z,50.20
2018-03-26T10:37:40.015Z,50.97
2018-03-26T10:40:07.428Z,48.30
2018-03-26T10:42:34.828Z,55.03
2018-03-26T10:45:02.519Z,52.37
2018-03-26T10:47:29.923Z,51.27
2018-03-26T10:49:57.327Z,51.63
2018-03-26T10:52:24.735Z,50.17
2018-03-26T10:54:52.149Z,51.33
2018-03-26T10:57:19.564Z,51.13
2018-03-26T10:59:46.963Z,50.80
2018-03-26T11:02:14.363Z,48.33
2018-03-26T11:04:41.781Z,50.33
2018-03-26T11:07:09.180Z,53.03
2018-03-26T11:09:36.600Z,52.50
2018-03-26T11:12:04.008Z,50.67
2018-03-26T11:14:31.410Z,52.10
2018-03-26T11:16:58.819Z,52.20
2018-03-26T11:19:26.227Z,53.50
2018-03-26T11:21:53.648Z,51.07
2018-03-26T11:24:21.047Z,53.40
2018-03-26T11:26:48.476Z,52.37
2018-03-26T11:29:15.876Z,53.20
2018-03-26T11:31:43.283Z,51.73
2018-03-26T11:34:10.700Z,54.23
2018-03-26T11:36:38.108Z,51.63
2018-03-26T11:39:05.513Z,54.70
2018-03-26T11:41:32.930Z,52.90
2018-03-26T11:44:00.326Z,53.40
2018-03-26T11:46:27.744Z,53.40
2018-03-26T11:48:55.148Z,53.30
2018-03-26T11:51:22.552Z,51.60
2018-03-26T11:53:49.985Z,53.20
2018-03-26T11:56:17.488Z,52.70
2018-03-26T11:58:44.892Z,51.13
2018-03-26T12:01:12.318Z,51.47
2018-03-26T12:03:39.707Z,50.97
2018-03-26T12:06:07.116Z,53.10
2018-03-26T12:08:34.528Z,51.00
2018-03-26T12:11:01.944Z,48.60
2018-03-26T12:13:29.344Z,51.23
2018-03-26T12:15:56.744Z,51.23
2018-03-26T12:18:24.151Z,49.63
2018-03-26T12:20:57.039Z,48.90
2018-03-26T12:23:36.228Z,49.10
2018-03-26T12:26:03.628Z,49.43
2018-03-26T12:28:42.760Z,48.20
2018-03-26T12:31:10.171Z,51.00
2018-03-26T12:33:49.528Z,49.50
2018-03-26T12:36:16.937Z,50.60
2018-03-26T12:38:44.339Z,48.93
2018-03-26T12:41:11.752Z,47.83
2018-03-26T12:43:39.159Z,46.60
2018-03-26T12:46:18.383Z,45.50
2018-03-26T12:48:45.754Z,46.70
2018-03-26T12:51:24.879Z,44.43
2018-03-26T12:53:52.279Z,46.60
2018-03-26T12:56:19.700Z,46.50
2018-03-26T12:58:48.004Z,46.30
2018-03-26T13:01:27.173Z,48.47
2018-03-26T13:03:54.581Z,47.00
2018-03-26T13:06:21.984Z,47.30
2018-03-26T13:08:49.403Z,46.90
2018-03-26T13:11:16.804Z,49.57
2018-03-26T13:13:44.225Z,47.10
2018-03-26T13:16:11.641Z,48.33
2018-03-26T13:18:39.040Z,48.40
2018-03-26T13:21:06.444Z,48.00
2018-03-26T13:23:33.855Z,46.70
2018-03-26T13:26:01.270Z,46.43
2018-03-26T13:28:28.675Z,50.03
2018-03-26T13:30:56.076Z,47.83
2018-03-26T13:33:23.476Z,47.43
2018-03-26T13:35:50.892Z,49.30
2018-03-26T13:38:18.296Z,48.33
2018-03-26T13:40:45.713Z,44.30
2018-03-26T13:43:13.111Z,49.17
2018-03-26T13:45:40.516Z,49.10
2018-03-26T13:48:07.935Z,49.57
2018-03-26T13:50:35.336Z,50.47
2018-03-26T13:53:02.760Z,52.70
2018-03-26T13:55:30.168Z,57.10
2018-03-26T13:57:57.566Z,51.30
2018-03-26T14:00:24.972Z,52.10
2018-03-26T14:02:52.372Z,51.40
2018-03-26T14:05:19.782Z,53.97
2018-03-26T14:07:47.191Z,53.13
2018-03-26T14:10:26.304Z,52.03
2018-03-26T14:13:05.479Z,51.43
2018-03-26T14:15:44.683Z,53.50
2018-03-26T14:18:12.108Z,52.13
2018-03-26T14:20:39.492Z,50.87
2018-03-26T14:23:06.899Z,52.10
2018-03-26T14:25:34.299Z,51.73
2018-03-26T14:28:01.716Z,49.20
2018-03-26T14:30:29.116Z,50.70
2018-03-26T14:32:56.512Z,48.10
2018-03-26T14:38:20.507Z,51.13
2018-03-26T14:40:47.912Z,50.07
2018-03-26T14:43:15.321Z,47.57
2018-03-26T14:45:42.725Z,51.67
2018-03-26T14:48:10.120Z,47.73
2018-03-26T14:50:37.544Z,53.03
2018-03-26T14:53:04.948Z,51.80
2018-03-26T14:55:32.344Z,47.50
2018-03-26T14:57:59.757Z,51.53
2018-03-26T15:00:27.195Z,49.00
2018-03-26T15:02:54.596Z,50.57
2018-03-26T15:05:22.000Z,48.20
2018-03-26T15:07:49.416Z,49.83
2018-03-26T15:10:16.928Z,48.80
2018-03-26T15:12:44.328Z,47.27
2018-03-26T15:15:11.745Z,46.97
2018-03-26T15:17:39.139Z,44.93
2018-03-26T15:20:06.543Z,46.27
2018-03-26T15:22:33.952Z,45.10
2018-03-26T15:25:01.370Z,47.00
2018-03-26T15:27:28.819Z,48.53
2018-03-26T15:29:56.178Z,47.03
2018-03-26T15:32:23.584Z,47.20
2018-03-26T15:34:50.995Z,46.80
2018-03-26T15:37:18.401Z,48.17
2018-03-26T15:39:45.808Z,45.07
2018-03-26T15:42:13.220Z,44.13
2018-03-26T15:44:40.624Z,44.50
2018-03-26T15:47:08.024Z,44.97
2018-03-26T15:49:35.432Z,46.07
2018-03-26T15:52:02.841Z,44.53
2018-03-26T15:54:30.249Z,44.13
2018-03-26T15:56:57.643Z,44.20
2018-03-26T15:59:25.044Z,45.53
2018-03-26T16:01:51.890Z,44.50
2018-03-26T16:04:19.286Z,45.30
2018-03-26T16:06:46.695Z,47.47
2018-03-26T16:09:14.146Z,44.50
2018-03-26T16:11:41.552Z,44.17
2018-03-26T16:14:08.996Z,44.33
2018-03-26T16:16:36.395Z,43.70
2018-03-26T16:19:03.812Z,45.50
2018-03-26T16:21:31.216Z,46.53
2018-03-26T16:23:58.633Z,46.47
2018-03-26T16:26:26.037Z,44.00
2018-03-26T16:28:53.434Z,44.67
2018-03-26T16:31:20.845Z,46.33
2018-03-26T16:33:48.261Z,43.67
2018-03-26T16:36:15.675Z,44.60
2018-03-26T16:38:43.078Z,44.30
2018-03-26T16:41:10.477Z,44.77
2018-03-26T16:43:37.893Z,43.87
2018-03-26T16:46:05.295Z,45.20
2018-03-26T16:48:32.713Z,44.10
2018-03-26T16:51:00.116Z,46.10
2018-03-26T16:53:27.512Z,44.00
2018-03-26T16:55:54.938Z,45.00
2018-03-26T16:58:22.340Z,43.53
2018-03-26T17:00:49.760Z,46.60
2018-03-26T17:03:17.156Z,46.20
2018-03-26T17:05:44.560Z,44.90
2018-03-26T17:08:11.969Z,43.90
2018-03-26T17:10:39.363Z,45.27
2018-03-26T17:13:06.784Z,47.23
2018-03-26T17:15:34.188Z,44.57
2018-03-26T17:18:01.584Z,46.57
2018-03-26T17:20:28.996Z,46.67
2018-03-26T17:22:57.372Z,45.97
2018-03-26T17:25:24.789Z,47.73
2018-03-26T17:27:52.196Z,48.07
2018-03-26T17:30:19.596Z,46.17
2018-03-26T17:32:47.009Z,46.83
2018-03-26T17:35:14.450Z,49.40
2018-03-26T17:37:41.854Z,48.60
2018-03-26T17:40:09.252Z,45.30
2018-03-26T17:42:36.653Z,48.67
2018-03-26T17:45:04.069Z,46.80
2018-03-26T17:47:31.469Z,49.50
2018-03-26T17:49:58.884Z,50.40
2018-03-26T17:52:26.327Z,49.13
2018-03-26T17:54:53.690Z,50.33
2018-03-26T17:57:21.099Z,49.30
2018-03-26T17:59:48.499Z,51.90
2018-03-26T18:02:16.250Z,49.73
2018-03-26T18:04:43.671Z,50.73
2018-03-26T18:07:11.068Z,50.50
2018-03-26T18:09:38.475Z,50.43
2018-03-26T18:12:05.898Z,49.27
2018-03-26T18:14:33.300Z,49.33
2018-03-26T18:17:00.709Z,49.57
2018-03-26T18:19:28.103Z,51.53
2018-03-26T18:21:55.523Z,49.10
2018-03-26T18:24:22.917Z,48.13
2018-03-26T18:26:56.240Z,49.63
2018-03-26T18:29:23.640Z,50.50
2018-03-26T18:31:51.044Z,48.93
2018-03-26T18:34:18.448Z,51.53
2018-03-26T18:36:45.858Z,53.90
2018-03-26T18:39:13.271Z,52.03
2018-03-26T18:41:40.672Z,54.20
2018-03-26T18:44:08.080Z,52.50
2018-03-26T18:46:35.484Z,49.10
2018-03-26T18:49:02.892Z,51.85
2018-03-26T18:51:30.308Z,49.53
2018-03-26T18:53:57.720Z,52.33
2018-03-26T18:56:26.147Z,51.60
2018-03-26T18:58:53.564Z,52.77
2018-03-26T19:01:20.964Z,51.10
2018-03-26T19:03:48.384Z,54.90
2018-03-26T19:06:15.792Z,56.93
2018-03-26T19:08:43.196Z,52.83
2018-03-26T19:11:10.608Z,56.30
2018-03-26T19:13:38.012Z,55.30
2018-03-26T19:16:05.424Z,52.87
2018-03-26T19:18:32.824Z,54.60
2018-03-26T19:21:00.307Z,51.43
2018-03-26T19:23:27.741Z,52.20
2018-03-26T19:25:55.120Z,51.70
2018-03-26T19:28:22.530Z,55.07
2018-03-26T19:30:49.932Z,53.47
2018-03-26T19:33:17.414Z,53.53
2018-03-26T19:35:44.828Z,53.40
2018-03-26T19:38:12.228Z,58.90
2018-03-26T19:40:39.641Z,54.17
2018-03-26T19:43:07.053Z,53.40
2018-03-26T19:45:34.469Z,54.40
2018-03-26T19:48:01.898Z,58.83
2018-03-26T19:50:29.300Z,58.30
2018-03-26T19:52:56.712Z,57.33
2018-03-26T19:55:24.117Z,55.17
2018-03-26T19:57:51.535Z,57.93
2018-03-26T20:00:18.941Z,57.47
2018-03-26T20:02:46.338Z,57.23
2018-03-26T20:05:13.754Z,55.20
2018-03-26T20:07:41.150Z,57.97
2018-03-26T20:10:08.579Z,57.93
2018-03-26T20:12:35.983Z,55.53
2018-03-26T20:15:03.397Z,54.78
2018-03-26T20:17:30.829Z,59.78
2018-03-26T20:19:58.227Z,53.50
2018-03-26T20:22:25.639Z,57.50
2018-03-26T20:24:53.056Z,55.37
2018-03-26T20:27:20.472Z,54.90
2018-03-26T20:29:47.880Z,55.37
2018-03-26T20:32:15.281Z,56.67
2018-03-26T20:34:42.688Z,52.43
2018-03-26T20:37:10.091Z,56.33
2018-03-26T20:39:37.497Z,55.60
2018-03-26T20:42:04.911Z,55.30
2018-03-26T20:44:32.307Z,58.90
2018-03-26T20:46:59.720Z,52.77
2018-03-26T20:49:27.136Z,53.27
2018-03-26T20:51:54.539Z,54.87
2018-03-26T20:54:21.952Z,56.20
2018-03-26T20:56:49.363Z,52.57
2018-03-26T20:59:16.776Z,52.47
2018-03-26T21:01:44.175Z,52.00
2018-03-26T21:04:11.571Z,52.97
2018-03-26T21:06:38.990Z,56.80
2018-03-26T21:09:06.388Z,52.50
2018-03-26T21:11:33.918Z,51.40
2018-03-26T21:14:01.329Z,53.87
2018-03-26T21:16:28.732Z,55.87
2018-03-26T21:18:56.140Z,56.23
2018-03-26T21:21:23.553Z,56.35
2018-03-26T21:23:50.976Z,59.53
2018-03-26T21:26:18.391Z,58.37
2018-03-26T21:28:45.789Z,57.73
2018-03-26T21:31:13.204Z,58.87
2018-03-26T21:33:40.612Z,57.63
2018-03-26T21:36:08.029Z,64.67
2018-03-26T21:38:35.431Z,57.10
2018-03-26T21:41:02.849Z,64.47
2018-03-26T21:43:30.275Z,62.53
2018-03-26T21:45:57.680Z,66.80
2018-03-26T21:48:25.104Z,65.87
2018-03-26T21:50:52.514Z,68.43
2018-03-26T21:53:19.920Z,68.22
2018-03-26T21:55:47.331Z,68.00
2018-03-26T21:58:14.739Z,64.60
2018-03-26T22:00:42.161Z,65.03
2018-03-26T22:03:09.581Z,63.90
2018-03-26T22:05:36.977Z,68.60
2018-03-26T22:08:04.401Z,65.55
2018-03-26T22:10:31.814Z,70.03
2018-03-26T22:12:59.212Z,65.33
2018-03-26T22:15:26.641Z,65.57
2018-03-26T22:17:54.046Z,68.00
2018-03-26T22:20:21.468Z,66.45
2018-03-26T22:22:48.881Z,61.33
2018-03-26T22:25:16.292Z,63.47
2018-03-26T22:27:43.703Z,66.20
2018-03-26T22:30:11.124Z,60.42
2018-03-26T22:32:38.532Z,59.05
2018-03-26T22:35:05.947Z,55.47
2018-03-26T22:37:33.377Z,60.70
2018-03-26T22:40:00.792Z,54.47
2018-03-26T22:42:28.209Z,53.87
2018-03-26T22:44:55.635Z,51.25
2018-03-26T22:47:23.048Z,54.30
2018-03-26T22:49:50.464Z,56.47
2018-03-26T22:52:17.892Z,53.35
2018-03-26T22:54:45.307Z,53.67
2018-03-26T22:57:12.727Z,53.87
2018-03-26T22:59:40.144Z,55.15
2018-03-26T23:02:07.551Z,53.03
2018-03-26T23:04:34.975Z,57.15
2018-03-26T23:07:02.384Z,58.35
2018-03-26T23:09:29.804Z,62.28
2018-03-26T23:11:57.216Z,61.45
2018-03-26T23:14:24.624Z,63.70
2018-03-26T23:16:52.041Z,62.30
2018-03-26T23:19:19.456Z,65.57
2018-03-26T23:21:46.887Z,67.20
2018-03-26T23:24:14.294Z,66.95
2018-03-26T23:26:41.704Z,63.92
2018-03-26T23:29:09.127Z,68.82
2018-03-26T23:31:36.536Z,66.32
2018-03-26T23:34:03.960Z,70.10
2018-03-26T23:36:31.382Z,71.43
2018-03-26T23:38:58.776Z,73.93
2018-03-26T23:41:26.197Z,76.35
2018-03-26T23:43:53.627Z,73.90
2018-03-26T23:46:21.780Z,82.68
2018-03-26T23:48:49.197Z,74.80
2018-03-26T23:51:16.608Z,76.37
2018-03-26T23:53:44.044Z,80.12
2018-03-26T23:56:11.468Z,73.32
2018-03-26T23:58:38.892Z,77.55
